createdAt,value
2023-04-02T00:01:23.617Z,101280.00
2023-04-02T00:03:53.996Z,101280.47
2023-04-02T00:06:30.220Z,101283.88
2023-04-02T00:09:04.561Z,101284.69
2023-04-02T00:11:38.019Z,101283.03
2023-04-02T00:14:15.216Z,101293.84
2023-04-02T00:16:41.843Z,101297.38
2023-04-02T00:19:16.744Z,101300.88
2023-04-02T00:21:46.538Z,101296.53
2023-04-02T00:24:19.366Z,101303.44
2023-04-02T00:26:48.884Z,101299.13
2023-04-02T00:29:16.865Z,101314.81
2023-04-02T00:31:46.422Z,101309.69
2023-04-02T00:34:23.779Z,101319.63
2023-04-02T00:36:52.401Z,101316.81
2023-04-02T00:39:23.450Z,101317.28
2023-04-02T00:42:05.081Z,101329.72
2023-04-02T00:44:34.432Z,101340.50
2023-04-02T00:47:21.340Z,101338.38
2023-04-02T00:49:53.662Z,101354.56
2023-04-02T00:52:25.587Z,101351.16
2023-04-02T00:55:17.756Z,101359.03
2023-04-02T00:57:45.142Z,101369.47
2023-04-02T01:00:30.731Z,101374.50
2023-04-02T01:03:13.129Z,101369.34
2023-04-02T01:05:42.516Z,101384.09
2023-04-02T01:08:23.239Z,101388.69
2023-04-02T01:11:07.782Z,101381.63
2023-04-02T01:13:44.731Z,101395.72
2023-04-02T01:16:22.753Z,101400.50
2023-04-02T01:19:32.143Z,101404.25
2023-04-02T01:22:15.325Z,101409.53
2023-04-02T01:24:44.011Z,101411.03
2023-04-02T01:27:16.281Z,101412.66
2023-04-02T01:29:48.595Z,101412.06
2023-04-02T01:32:19.725Z,101421.81
2023-04-02T01:34:48.592Z,101423.06
2023-04-02T01:37:50.702Z,101428.47
2023-04-02T01:40:38.105Z,101435.97
2023-04-02T01:43:29.522Z,101440.16
2023-04-02T01:45:58.320Z,101439.81
2023-04-02T01:48:30.121Z,101447.28
2023-04-02T01:50:59.720Z,101447.88
2023-04-02T01:53:30.287Z,101456.78
2023-04-02T01:56:00.123Z,101451.03
2023-04-02T01:58:31.583Z,101467.66
2023-04-02T02:01:05.951Z,101468.13
2023-04-02T02:03:33.652Z,101475.75
2023-04-02T02:06:02.121Z,101479.03
2023-04-02T02:08:44.618Z,101490.88
2023-04-02T02:11:15.473Z,101494.59
2023-04-02T02:13:53.138Z,101497.50
2023-04-02T02:16:20.367Z,101501.03
2023-04-02T02:18:54.875Z,101506.28
2023-04-02T02:21:39.872Z,101510.84
2023-04-02T02:24:17.089Z,101512.47
2023-04-02T02:26:46.214Z,101517.06
2023-04-02T02:29:18.367Z,101517.50
2023-04-02T02:31:51.155Z,101525.00
2023-04-02T02:34:22.892Z,101528.75
2023-04-02T02:37:04.199Z,101535.03
2023-04-02T02:39:39.074Z,101537.56
2023-04-02T02:42:20.718Z,101545.03
2023-04-02T02:44:50.424Z,101542.00
2023-04-02T02:47:19.254Z,101550.50
2023-04-02T02:49:54.012Z,101551.75
2023-04-02T02:52:28.812Z,101554.91
2023-04-02T02:55:00.190Z,101566.94
2023-04-02T02:57:31.863Z,101575.47
2023-04-02T03:00:00.975Z,101582.09
2023-04-02T03:02:28.634Z,101584.19
2023-04-02T03:04:56.609Z,101590.44
2023-04-02T03:07:26.505Z,101591.63
2023-04-02T03:10:05.701Z,101596.63
2023-04-02T03:12:43.935Z,101607.38
2023-04-02T03:15:19.183Z,101607.63
2023-04-02T03:17:51.988Z,101616.75
2023-04-02T03:20:35.000Z,101616.97
2023-04-02T03:23:13.065Z,101620.72
2023-04-02T03:25:49.145Z,101630.66
2023-04-02T03:28:27.456Z,101630.66
2023-04-02T03:31:02.848Z,101645.59
2023-04-02T03:33:34.856Z,101647.91
2023-04-02T03:36:12.854Z,101655.38
2023-04-02T03:38:47.017Z,101661.00
2023-04-02T03:41:29.764Z,101663.69
2023-04-02T03:44:04.399Z,101668.03
2023-04-02T03:46:46.386Z,101674.44
2023-04-02T03:49:29.590Z,101686.25
2023-04-02T03:52:04.010Z,101692.69
2023-04-02T03:54:31.412Z,101690.78
2023-04-02T03:56:58.530Z,101695.19
2023-04-02T03:59:36.976Z,101700.16
2023-04-02T04:02:34.460Z,101710.31
2023-04-02T04:05:03.547Z,101718.38
2023-04-02T04:07:34.628Z,101716.94
2023-04-02T04:10:02.905Z,101717.16
2023-04-02T04:12:47.062Z,101732.25
2023-04-02T04:15:33.133Z,101733.50
2023-04-02T04:18:05.911Z,101740.16
2023-04-02T04:20:41.909Z,101753.19
2023-04-02T04:23:19.936Z,101752.63
2023-04-02T04:25:49.393Z,101763.81
2023-04-02T04:28:38.321Z,101767.94
2023-04-02T04:31:30.829Z,101774.56
2023-04-02T04:34:05.134Z,101785.75
2023-04-02T04:36:47.908Z,101789.47
2023-04-02T04:39:23.447Z,101790.53
2023-04-02T04:41:51.805Z,101797.75
2023-04-02T04:44:36.090Z,101807.09
2023-04-02T04:47:26.552Z,101809.34
2023-04-02T04:50:04.285Z,101822.44
2023-04-02T04:52:36.599Z,101830.31
2023-04-02T04:55:04.157Z,101827.00
2023-04-02T04:57:37.878Z,101831.34
2023-04-02T05:00:18.029Z,101834.44
2023-04-02T05:03:03.368Z,101849.97
2023-04-02T05:05:33.685Z,101849.75
2023-04-02T05:08:25.832Z,101868.16
2023-04-02T05:10:57.609Z,101865.66
2023-04-02T05:13:28.726Z,101877.25
2023-04-02T05:16:08.066Z,101882.00
2023-04-02T05:18:40.303Z,101885.09
2023-04-02T05:21:35.606Z,101897.06
2023-04-02T05:24:29.913Z,101909.28
2023-04-02T05:27:03.251Z,101920.84
2023-04-02T05:29:36.141Z,101911.94
2023-04-02T05:32:21.103Z,101919.78
2023-04-02T05:34:53.073Z,101929.28
2023-04-02T05:37:22.486Z,101923.06
2023-04-02T05:39:58.431Z,101940.19
2023-04-02T05:42:29.355Z,101941.63
2023-04-02T05:45:06.982Z,101950.72
2023-04-02T05:47:35.891Z,101951.91
2023-04-02T05:50:08.593Z,101955.63
2023-04-02T05:52:42.036Z,101964.09
2023-04-02T05:55:11.431Z,101962.81
2023-04-02T05:57:51.242Z,101972.13
2023-04-02T06:00:39.906Z,101984.69
2023-04-02T06:03:18.103Z,101994.19
2023-04-02T06:05:46.660Z,101999.53
2023-04-02T06:08:31.414Z,102000.97
2023-04-02T06:11:07.720Z,102005.53
2023-04-02T06:13:34.679Z,102018.72
2023-04-02T06:16:01.541Z,102027.81
2023-04-02T06:18:33.851Z,102041.88
2023-04-02T06:21:02.091Z,102035.63
2023-04-02T06:23:41.637Z,102046.75
2023-04-02T06:26:27.021Z,102052.13
2023-04-02T06:29:04.438Z,102064.13
2023-04-02T06:31:36.586Z,102069.09
2023-04-02T06:34:06.909Z,102067.84
2023-04-02T06:36:33.711Z,102072.81
2023-04-02T06:39:07.334Z,102075.94
2023-04-02T06:41:33.832Z,102080.31
2023-04-02T06:44:06.577Z,102075.31
2023-04-02T06:46:44.485Z,102087.91
2023-04-02T06:49:33.245Z,102090.41
2023-04-02T06:52:02.549Z,102093.50
2023-04-02T06:54:29.026Z,102092.09
2023-04-02T06:56:58.662Z,102098.50
2023-04-02T06:59:25.289Z,102105.09
2023-04-02T07:01:58.836Z,102114.34
2023-04-02T07:04:25.757Z,102124.72
2023-04-02T07:06:53.293Z,102131.09
2023-04-02T07:09:19.703Z,102141.66
2023-04-02T07:11:46.363Z,102150.16
2023-04-02T07:14:13.341Z,102144.00
2023-04-02T07:16:42.117Z,102156.16
2023-04-02T07:19:17.593Z,102165.69
2023-04-02T07:21:43.955Z,102161.56
2023-04-02T07:24:10.340Z,102165.91
2023-04-02T07:26:36.717Z,102178.28
2023-04-02T07:29:03.654Z,102183.00
2023-04-02T07:31:30.191Z,102194.78
2023-04-02T07:34:02.549Z,102196.81
2023-04-02T07:36:30.628Z,102203.34
2023-04-02T07:38:57.228Z,102198.44
2023-04-02T07:41:23.810Z,102205.91
2023-04-02T07:43:50.556Z,102209.84
2023-04-02T07:46:19.062Z,102210.50
2023-04-02T07:48:46.461Z,102213.81
2023-04-02T07:51:21.641Z,102216.75
2023-04-02T07:53:54.821Z,102219.44
2023-04-02T07:56:23.268Z,102230.97
2023-04-02T07:58:49.814Z,102233.22
2023-04-02T08:01:24.052Z,102234.41
2023-04-02T08:03:52.999Z,102233.13
2023-04-02T08:06:21.310Z,102238.31
2023-04-02T08:08:47.675Z,102238.31
2023-04-02T08:11:14.162Z,102240.00
2023-04-02T08:13:40.626Z,102243.94
2023-04-02T08:16:07.750Z,102253.84
2023-04-02T08:18:35.117Z,102253.84
2023-04-02T08:21:02.200Z,102262.28
2023-04-02T08:23:28.728Z,102263.31
2023-04-02T08:25:55.896Z,102264.97
2023-04-02T08:28:22.956Z,102273.66
2023-04-02T08:30:49.619Z,102276.56
2023-04-02T08:33:17.942Z,102285.16
2023-04-02T08:35:48.538Z,102292.03
2023-04-02T08:38:16.657Z,102300.13
2023-04-02T08:40:51.103Z,102305.00
2023-04-02T08:43:28.845Z,102302.31
2023-04-02T08:45:58.297Z,102304.63
2023-04-02T08:48:24.711Z,102308.59
2023-04-02T08:50:52.088Z,102316.25
2023-04-02T08:53:27.290Z,102324.59
2023-04-02T08:56:08.554Z,102323.47
2023-04-02T08:58:45.019Z,102336.47
2023-04-02T09:01:17.043Z,102350.28
2023-04-02T09:03:47.892Z,102349.44
2023-04-02T09:06:18.296Z,102351.09
2023-04-02T09:08:47.280Z,102355.41
2023-04-02T09:11:26.491Z,102357.22
2023-04-02T09:14:00.600Z,102360.75
2023-04-02T09:16:43.549Z,102362.06
2023-04-02T09:19:35.509Z,102368.59
2023-04-02T09:22:25.356Z,102374.22
2023-04-02T09:24:54.159Z,102368.66
2023-04-02T09:27:23.480Z,102377.81
2023-04-02T09:29:55.053Z,102378.47
2023-04-02T09:32:37.267Z,102388.69
2023-04-02T09:35:24.580Z,102397.06
2023-04-02T09:38:07.604Z,102404.94
2023-04-02T09:40:46.815Z,102398.78
2023-04-02T09:43:16.633Z,102400.19
2023-04-02T09:45:44.858Z,102403.56
2023-04-02T09:48:32.826Z,102402.75
2023-04-02T09:51:11.357Z,102393.41
2023-04-02T09:53:46.642Z,102386.84
2023-04-02T09:56:19.399Z,102391.88
2023-04-02T09:59:13.286Z,102393.78
2023-04-02T10:01:45.578Z,102396.91
2023-04-02T10:04:44.476Z,102403.31
2023-04-02T10:07:44.540Z,102410.16
2023-04-02T10:10:33.046Z,102411.41
2023-04-02T10:13:01.397Z,102411.63
2023-04-02T10:15:35.378Z,102418.06
2023-04-02T10:18:15.057Z,102422.84
2023-04-02T10:20:50.952Z,102424.09
2023-04-02T10:23:19.461Z,102429.28
2023-04-02T10:26:17.841Z,102429.69
2023-04-02T10:29:27.166Z,102433.41
2023-04-02T10:32:03.904Z,102428.84
2023-04-02T10:34:54.014Z,102430.28
2023-04-02T10:37:41.986Z,102435.06
2023-04-02T10:40:29.258Z,102442.53
2023-04-02T10:43:33.050Z,102437.50
2023-04-02T10:46:26.189Z,102449.50
2023-04-02T10:49:32.399Z,102449.91
2023-04-02T10:52:03.903Z,102442.66
2023-04-02T10:54:41.414Z,102436.34
2023-04-02T10:57:16.651Z,102448.16
2023-04-02T10:59:52.403Z,102443.56
2023-04-02T11:02:32.128Z,102449.59
2023-04-02T11:05:06.990Z,102450.63
2023-04-02T11:07:46.252Z,102460.16
2023-04-02T11:10:17.420Z,102447.25
2023-04-02T11:12:52.578Z,102459.72
2023-04-02T11:15:20.407Z,102457.19
2023-04-02T11:17:47.861Z,102463.56
2023-04-02T11:20:48.338Z,102460.44
2023-04-02T11:23:18.752Z,102463.72
2023-04-02T11:25:46.119Z,102473.25
2023-04-02T11:28:13.723Z,102474.91
2023-04-02T11:30:40.472Z,102472.22
2023-04-02T11:33:43.097Z,102480.34
2023-04-02T11:36:48.933Z,102485.75
2023-04-02T11:39:53.553Z,102496.13
2023-04-02T11:42:42.861Z,102486.91
2023-04-02T11:45:21.544Z,102491.88
2023-04-02T11:48:16.634Z,102493.47
2023-04-02T11:50:45.044Z,102483.50
2023-04-02T11:53:23.290Z,102495.75
2023-04-02T11:56:18.686Z,102499.94
2023-04-02T11:59:18.949Z,102508.66
2023-04-02T12:02:00.360Z,102507.78
2023-04-02T12:04:47.378Z,102508.97
2023-04-02T12:07:52.136Z,102513.56
2023-04-02T12:10:27.714Z,102514.00
2023-04-02T12:12:54.158Z,102515.19
2023-04-02T12:15:34.251Z,102516.16
2023-04-02T12:18:21.276Z,102511.97
2023-04-02T12:20:53.158Z,102524.63
2023-04-02T12:23:31.284Z,102516.66
2023-04-02T12:26:24.192Z,102529.75
2023-04-02T12:28:50.550Z,102531.41
2023-04-02T12:31:20.262Z,102528.09
2023-04-02T12:33:46.752Z,102530.22
2023-04-02T12:36:16.058Z,102537.53
2023-04-02T12:38:56.969Z,102523.66
2023-04-02T12:41:30.924Z,102531.78
2023-04-02T12:44:06.492Z,102529.53
2023-04-02T12:46:35.534Z,102544.75
2023-04-02T12:49:23.512Z,102532.41
2023-04-02T12:51:51.816Z,102543.16
2023-04-02T12:54:19.630Z,102538.78
2023-04-02T12:56:47.615Z,102548.13
2023-04-02T12:59:28.682Z,102547.44
2023-04-02T13:02:00.121Z,102551.16
2023-04-02T13:04:27.478Z,102549.66
2023-04-02T13:06:55.768Z,102547.59
2023-04-02T13:09:35.000Z,102540.53
2023-04-02T13:12:02.748Z,102544.88
2023-04-02T13:14:29.880Z,102555.44
2023-04-02T13:16:56.587Z,102550.91
2023-04-02T13:19:49.240Z,102552.13
2023-04-02T13:22:35.909Z,102557.72
2023-04-02T13:25:02.270Z,102555.00
2023-04-02T13:27:28.674Z,102555.13
2023-04-02T13:29:55.210Z,102555.13
2023-04-02T13:32:22.214Z,102558.47
2023-04-02T13:34:48.682Z,102550.19
2023-04-02T13:37:15.242Z,102558.31
2023-04-02T13:39:41.645Z,102562.03
2023-04-02T13:42:11.649Z,102561.38
2023-04-02T13:44:38.185Z,102561.47
2023-04-02T13:47:04.694Z,102554.28
2023-04-02T13:49:32.015Z,102565.13
2023-04-02T13:52:05.530Z,102563.13
2023-04-02T13:54:38.634Z,102574.78
2023-04-02T13:57:05.021Z,102572.06
2023-04-02T13:59:31.432Z,102575.69
2023-04-02T14:02:05.615Z,102577.50
2023-04-02T14:04:38.261Z,102569.50
2023-04-02T14:07:43.607Z,102579.81
2023-04-02T14:10:53.141Z,102581.41
2023-04-02T14:13:45.008Z,102590.75
2023-04-02T14:16:36.645Z,102593.47
2023-04-02T14:19:23.894Z,102598.28
2023-04-02T14:22:27.028Z,102598.03
2023-04-02T14:25:31.714Z,102600.84
2023-04-02T14:28:08.072Z,102592.72
2023-04-02T14:30:50.052Z,102596.34
2023-04-02T14:33:43.305Z,102594.97
2023-04-02T14:36:23.852Z,102599.81
2023-04-02T14:38:56.113Z,102597.69
2023-04-02T14:41:30.572Z,102599.94
2023-04-02T14:44:03.318Z,102604.31
2023-04-02T14:46:32.463Z,102608.09
2023-04-02T14:49:20.827Z,102602.81
2023-04-02T14:51:56.256Z,102616.00
2023-04-02T14:54:35.947Z,102616.06
2023-04-02T14:57:12.539Z,102628.59
2023-04-02T14:59:57.102Z,102611.09
2023-04-02T15:02:51.515Z,102609.91
2023-04-02T15:05:24.395Z,102616.97
2023-04-02T15:07:57.651Z,102624.66
2023-04-02T15:10:52.041Z,102624.50
2023-04-02T15:13:22.750Z,102637.13
2023-04-02T15:15:56.583Z,102634.66
2023-04-02T15:18:23.205Z,102637.56
2023-04-02T15:21:19.331Z,102636.34
2023-04-02T15:24:05.678Z,102644.84
2023-04-02T15:26:56.882Z,102641.69
2023-04-02T15:29:39.382Z,102644.56
2023-04-02T15:32:29.506Z,102641.63
2023-04-02T15:35:49.804Z,102637.03
2023-04-02T15:38:26.458Z,102640.94
2023-04-02T15:41:02.118Z,102643.06
2023-04-02T15:43:43.917Z,102646.22
2023-04-02T15:46:58.430Z,102640.34
2023-04-02T15:49:41.873Z,102649.09
2023-04-02T15:52:20.919Z,102650.28
2023-04-02T15:58:44.920Z,102651.63
2023-04-02T16:01:23.659Z,102645.84
2023-04-02T16:04:19.529Z,102645.59
2023-04-02T16:07:19.101Z,102645.44
2023-04-02T16:09:59.779Z,102651.03
2023-04-02T16:12:27.637Z,102650.44
2023-04-02T16:15:27.250Z,102660.06
2023-04-02T16:18:02.520Z,102670.13
2023-04-02T16:20:36.857Z,102669.50
2023-04-02T16:23:12.590Z,102678.69
2023-04-02T16:25:48.783Z,102682.28
2023-04-02T16:28:26.163Z,102680.25
2023-04-02T16:31:04.716Z,102686.13
2023-04-02T16:34:05.781Z,102684.91
2023-04-02T16:36:58.214Z,102686.59
2023-04-02T16:39:49.142Z,102686.91
2023-04-02T16:42:45.375Z,102692.59
2023-04-02T16:45:18.033Z,102691.19
2023-04-02T16:47:58.740Z,102707.28
2023-04-02T16:50:39.506Z,102706.03
2023-04-02T16:53:37.910Z,102717.31
2023-04-02T16:56:36.438Z,102717.34
2023-04-02T16:59:14.635Z,102728.22
2023-04-02T17:01:59.176Z,102726.19
2023-04-02T17:04:52.402Z,102731.84
2023-04-02T17:07:43.688Z,102732.88
2023-04-02T17:10:24.264Z,102745.81
2023-04-02T17:13:15.318Z,102746.66
2023-04-02T17:15:45.924Z,102751.88
2023-04-02T17:18:20.997Z,102756.91
2023-04-02T17:20:48.220Z,102757.53
2023-04-02T17:23:16.936Z,102759.63
2023-04-02T17:26:07.095Z,102767.97
2023-04-02T17:28:37.836Z,102765.44
2023-04-02T17:31:16.686Z,102768.59
2023-04-02T17:33:43.216Z,102769.22
2023-04-02T17:36:29.806Z,102770.91
2023-04-02T17:39:18.005Z,102775.72
2023-04-02T17:42:10.329Z,102784.84
2023-04-02T17:45:08.989Z,102791.53
2023-04-02T17:48:14.052Z,102790.06
2023-04-02T17:51:00.345Z,102793.19
2023-04-02T17:53:31.388Z,102802.97
2023-04-02T17:56:10.311Z,102805.47
2023-04-02T17:59:12.769Z,102804.84
2023-04-02T18:01:50.682Z,102812.75
2023-04-02T18:04:35.418Z,102814.84
2023-04-02T18:07:23.473Z,102817.34
2023-04-02T18:10:14.649Z,102829.56
2023-04-02T18:12:56.966Z,102832.28
2023-04-02T18:15:41.549Z,102832.69
2023-04-02T18:18:14.031Z,102837.47
2023-04-02T18:20:54.513Z,102843.28
2023-04-02T18:23:20.862Z,102843.28
2023-04-02T18:26:17.783Z,102841.16
2023-04-02T18:29:08.067Z,102846.34
2023-04-02T18:31:54.291Z,102861.94
2023-04-02T18:35:14.416Z,102864.63
2023-04-02T18:38:18.344Z,102866.28
2023-04-02T18:41:01.733Z,102860.63
2023-04-02T18:43:31.124Z,102872.25
2023-04-02T18:46:26.326Z,102871.41
2023-04-02T18:48:57.559Z,102883.03
2023-04-02T18:51:27.088Z,102883.44
2023-04-02T18:54:25.802Z,102895.03
2023-04-02T18:56:52.216Z,102898.53
2023-04-02T18:59:28.697Z,102897.88
2023-04-02T19:01:58.381Z,102901.16
2023-04-02T19:04:32.681Z,102904.91
2023-04-02T19:07:16.355Z,102909.88
2023-04-02T19:09:50.662Z,102921.06
2023-04-02T19:12:22.163Z,102922.91
2023-04-02T19:14:51.073Z,102929.75
2023-04-02T19:17:35.944Z,102930.78
2023-04-02T19:20:24.704Z,102944.28
2023-04-02T19:23:13.819Z,102943.84
2023-04-02T19:26:06.952Z,102951.69
2023-04-02T19:29:04.020Z,102951.66
2023-04-02T19:31:58.265Z,102958.00
2023-04-02T19:34:41.609Z,102953.41
2023-04-02T19:37:17.975Z,102952.38
2023-04-02T19:40:27.053Z,102954.44
2023-04-02T19:42:54.332Z,102953.34
2023-04-02T19:45:33.048Z,102967.22
2023-04-02T19:48:03.558Z,102969.47
2023-04-02T19:50:30.497Z,102965.47
2023-04-02T19:52:57.633Z,102974.16
2023-04-02T19:55:24.120Z,102970.34
2023-04-02T19:57:52.670Z,102979.69
2023-04-02T20:00:21.295Z,102980.53
2023-04-02T20:02:47.716Z,102980.31
2023-04-02T20:05:14.294Z,102981.34
2023-04-02T20:07:40.840Z,102978.44
2023-04-02T20:10:08.061Z,102988.22
2023-04-02T20:12:34.447Z,102980.53
2023-04-02T20:15:00.914Z,102983.66
2023-04-02T20:17:28.299Z,102985.50
2023-04-02T20:19:54.742Z,102988.63
2023-04-02T20:22:21.184Z,102989.81
2023-04-02T20:24:47.580Z,102995.81
2023-04-02T20:27:14.050Z,102998.50
2023-04-02T20:29:42.313Z,103007.63
2023-04-02T20:32:09.880Z,103003.03
2023-04-02T20:34:36.755Z,103009.66
2023-04-02T20:37:03.221Z,103017.13
2023-04-02T20:39:29.726Z,103014.59
2023-04-02T20:42:01.064Z,103017.88
2023-04-02T20:44:28.412Z,103028.00
2023-04-02T20:46:55.370Z,103015.72
2023-04-02T20:49:21.824Z,103026.06
2023-04-02T20:51:48.652Z,103026.44
2023-04-02T20:54:15.953Z,103030.34
2023-04-02T20:56:43.177Z,103031.56
2023-04-02T20:59:09.648Z,103037.13
2023-04-02T21:01:36.402Z,103045.22
2023-04-02T21:04:03.871Z,103037.31
2023-04-02T21:06:32.735Z,103047.25
2023-04-02T21:09:00.338Z,103049.50
2023-04-02T21:11:26.723Z,103056.09
2023-04-02T21:13:53.312Z,103056.84
2023-04-02T21:16:29.164Z,103051.00
2023-04-02T21:18:58.273Z,103061.78
2023-04-02T21:21:25.496Z,103065.03
2023-04-02T21:24:00.289Z,103072.00
2023-04-02T21:26:27.659Z,103073.38
2023-04-02T21:28:54.691Z,103074.78
2023-04-02T21:31:27.540Z,103075.63
2023-04-02T21:33:56.624Z,103074.78
2023-04-02T21:36:25.590Z,103080.88
2023-04-02T21:38:57.662Z,103079.22
2023-04-02T21:41:31.813Z,103082.56
2023-04-02T21:43:59.569Z,103081.25
2023-04-02T21:46:28.621Z,103094.06
2023-04-02T21:48:58.006Z,103087.34
2023-04-02T21:51:32.606Z,103081.97
2023-04-02T21:54:00.249Z,103089.75
2023-04-02T21:56:29.217Z,103089.28
2023-04-02T21:59:01.797Z,103083.41
2023-04-02T22:01:32.181Z,103086.31
2023-04-02T22:04:01.327Z,103086.88
2023-04-02T22:06:30.157Z,103091.97
2023-04-02T22:09:02.068Z,103091.47
2023-04-02T22:11:32.473Z,103092.84
2023-04-02T22:13:59.114Z,103097.09
2023-04-02T22:16:28.741Z,103096.97
2023-04-02T22:18:57.013Z,103096.81
2023-04-02T22:21:23.621Z,103098.19
2023-04-02T22:23:50.324Z,103100.22
2023-04-02T22:26:18.503Z,103102.41
2023-04-02T22:28:45.670Z,103104.28
2023-04-02T22:31:23.756Z,103102.97
2023-04-02T22:33:52.606Z,103099.97
2023-04-02T22:36:20.863Z,103102.00
2023-04-02T22:38:47.365Z,103106.06
2023-04-02T22:41:16.249Z,103098.19
2023-04-02T22:43:44.119Z,103105.03
2023-04-02T22:46:12.982Z,103104.38
2023-04-02T22:48:40.174Z,103104.75
2023-04-02T22:51:07.948Z,103105.09
2023-04-02T22:53:35.321Z,103108.13
2023-04-02T22:56:06.749Z,103112.19
2023-04-02T22:58:33.935Z,103114.22
2023-04-02T23:01:08.377Z,103117.63
2023-04-02T23:03:34.817Z,103119.16
2023-04-02T23:06:04.962Z,103114.31
2023-04-02T23:08:31.525Z,103123.56
2023-04-02T23:11:03.412Z,103114.19
2023-04-02T23:13:29.877Z,103125.44
2023-04-02T23:15:56.390Z,103117.41
2023-04-02T23:18:23.016Z,103128.34
2023-04-02T23:20:49.414Z,103125.47
2023-04-02T23:23:15.780Z,103124.47
2023-04-02T23:25:43.042Z,103122.16
2023-04-02T23:28:10.574Z,103123.81
2023-04-02T23:30:37.154Z,103123.81
2023-04-02T23:33:04.751Z,103127.88
2023-04-02T23:35:31.249Z,103134.25
2023-04-02T23:37:57.638Z,103131.38
2023-04-02T23:40:24.006Z,103126.19
2023-04-02T23:42:50.464Z,103138.78
2023-04-02T23:45:17.545Z,103137.28
2023-04-02T23:47:43.967Z,103133.75
2023-04-02T23:50:11.041Z,103148.19
2023-04-02T23:52:37.530Z,103142.34
2023-04-02T23:55:04.117Z,103136.47
2023-04-02T23:57:30.800Z,103143.34
2023-04-02T23:59:57.188Z,103140.81
